Potter, British Columbia

5:02 PM PDT on October 17, 2018 (GMT -0700)
South Green Lake | | Change Station

Elev 3510 ft 51.43 °N, 121.16 °W | Updated 16 seconds ago

Clear
Clear
61.7 °F
Feels Like 61.7 °F
N
3
Wind Variable Wind from SSE
Gusts 3.0 mph

Today
High -- | Low -- °F
--% Chance of Precip.
Yesterday
High -- | Low -- °F
Precip. -- in
Pressure 30.18 in
Visibility 9.0 miles
Clouds Clear
Dew Point 36 °F
Humidity 38%
Rainfall 0.00 in
Snow Depth Not available.
7:32 AM 6:06 PM
First Quarter, 62% visible
METAR CYIN 172300Z AUTO 09006KT 9SM CLR 13/01 A3011 RMK SLP220 DENSITY ALT 4100FT
Pressure 30.18 in
Visibility 9.0 miles
Clouds Clear
Dew Point 36 °F
Humidity 38%
Rainfall 0.00 in
Snow Depth Not available.
7:32 AM 6:06 PM
First Quarter, 62% visible
METAR CYIN 172300Z AUTO 09006KT 9SM CLR 13/01 A3011 RMK SLP220 DENSITY ALT 4100FT

Get Severe Weather Alerts

Thanks for signing up!

Be on the lookout for a verification email in your inbox.

You'll start receiving the daily forecast at 6 AM.

×

10-Day Weather Forecast

Almanac

Astronomy

Oct. 17, 2018 Rise Set
Actual Time
Civil Twilight
Nautical Twilight
Astronomical Twilight
Moon
Length of Visible Light
Length of Day
Tomorrow will be .
, % of the Moon is Illuminated

Today's Extremes

Country Highs Country Lows

Community

WunderPhotos

Category 6

Welcome to Category 6. This is the collective home for Weather Underground's featured writeups by Dr. Jeff Masters (right), Bob Henson (left), Chris Burt, and other regular contributors.

Nearby

Air Quality

  Air Quality AQ Index Pollutant
Not available.

Snow Depth

Station Depth Elevation

Earthquake Activity

City Distance Mag. Time & Date
Minimum magnitude displayed is 2.5.

Coastal Water Temperatures

Place Temperature

Stations

Nearby Weather Stations

Station Location Temp. Windchill Dew Point Humidity Wind Precip. Elev Updated Type
                   

Watches & Warnings

There are currently no watches in effect.